Search for airport 
image banner adimage banner adimage banner ad
image banner ad

IA23 - Gaa Private

Located in Guttenberg, United States

ICAO - IA23, IATA -

Data provided by Airmate  

General information

Coordinates: N42°48'32" W91°5'53"
Elevation is 620 feet MSL.
Magnetic variation is 01° East
View others Airports in Iowa

Operational data

Special qualification required
Current time UTC:
Current local time:
Weather at : KPDC - Prairie Du Chien Muni ( 23 km )
METAR: KPDC 151035Z AUTO 00000KT 10SM CLR 13/11 A3009 RMK AO2 T01300105
View NOTAMs / SUP AIP / TFR affecting this airport [VIEW]
Communications frequencies: [VIEW]

Runways:

RWY identifierQFULength (ft)Width (ft)SurfaceLDA (ft)
172540160GRASS
352540160GRASS

Airport contact information

Address: Guttenberg United States

Satellite view of IA23